Time;durP1;ratioP1;P1;durP2;ratioP2;P2;SDS_P1;SDS_P2;PMS_P1;PMS_P2;Temp;Humidity;BMP_temperature;BMP_pressure;BME280_temperature;BME280_humidity;BME280_pressure;Samples;Min_cycle;Max_cycle;Signal;HPM_P1;HPM_P2
2023/01/26 00:00:56;;;;;;;39.08;21.85;;;;;;;3.17;61.25;101163.91;5051020;28;20049;-61
2023/01/26 00:03:24;;;;;;;41.85;21.83;;;;;;;3.20;60.77;101166.16;5053208;28;20061;-61
2023/01/26 00:05:51;;;;;;;43.38;21.40;;;;;;;3.25;61.48;101165.41;5055730;28;20055;-61
2023/01/26 00:08:18;;;;;;;42.85;22.48;;;;;;;3.16;61.67;101158.63;5054435;28;20056;-61
2023/01/26 00:10:50;;;;;;;41.45;22.52;;;;;;;3.21;61.83;101150.44;5055857;28;20052;-61
2023/01/26 00:13:18;;;;;;;41.10;22.58;;;;;;;3.21;61.69;101150.44;5055635;28;20059;-61
2023/01/26 00:15:46;;;;;;;41.13;22.20;;;;;;;3.26;61.26;101156.06;5053796;28;20551;-60
2023/01/26 00:18:13;;;;;;;43.72;23.02;;;;;;;3.27;61.46;101159.66;5055555;28;20053;-61
2023/01/26 00:20:40;;;;;;;46.35;23.90;;;;;;;3.30;61.46;101159.13;5055594;28;20506;-61
2023/01/26 00:23:08;;;;;;;45.08;23.33;;;;;;;3.30;60.54;101151.72;5055829;28;20064;-61
2023/01/26 00:25:38;;;;;;;43.20;22.33;;;;;;;3.33;60.47;101137.44;5054954;28;20049;-61
2023/01/26 00:28:07;;;;;;;45.00;24.13;;;;;;;3.39;61.24;101138.38;5055731;28;20053;-61
2023/01/26 00:30:34;;;;;;;50.00;25.92;;;;;;;3.38;61.90;101139.44;5054530;28;20500;-61
2023/01/26 00:33:01;;;;;;;47.03;23.60;;;;;;;3.38;60.33;101134.81;5055130;28;20049;-61
2023/01/26 00:35:29;;;;;;;48.70;23.70;;;;;;;3.34;61.02;101128.13;5049651;28;20049;-61
2023/01/26 00:37:56;;;;;;;45.03;23.65;;;;;;;3.40;60.59;101115.25;5035729;28;20477;-61
2023/01/26 00:40:23;;;;;;;42.00;22.63;;;;;;;3.39;61.35;101119.09;5035412;28;20054;-61
2023/01/26 00:42:53;;;;;;;43.95;23.60;;;;;;;3.40;61.19;101112.50;5035129;28;20062;-61
2023/01/26 00:45:21;;;;;;;43.80;24.20;;;;;;;3.43;61.18;101103.75;5046584;28;20052;-61
2023/01/26 00:47:49;;;;;;;39.70;21.83;;;;;;;3.37;60.59;101099.25;5054861;28;20052;-61
2023/01/26 00:50:16;;;;;;;47.90;23.42;;;;;;;3.47;60.10;101096.66;5054916;28;20052;-60
2023/01/26 00:52:43;;;;;;;45.13;22.95;;;;;;;3.29;61.07;101091.41;5055046;28;20071;-61
2023/01/26 00:55:11;;;;;;;46.10;24.70;;;;;;;3.10;60.25;101099.91;5053275;28;20068;-61
2023/01/26 00:57:38;;;;;;;43.42;22.70;;;;;;;2.95;61.86;101091.38;5053857;28;20058;-61
2023/01/26 01:00:07;;;;;;;48.22;24.67;;;;;;;2.87;61.10;101089.88;5045990;28;20056;-60
2023/01/26 01:02:36;;;;;;;47.50;24.58;;;;;;;2.68;62.13;101088.44;5052393;28;20053;-61
2023/01/26 01:05:03;;;;;;;47.08;22.63;;;;;;;2.59;62.56;101074.25;5054667;28;20052;-61
2023/01/26 01:07:31;;;;;;;47.03;24.80;;;;;;;2.60;61.92;101067.66;5054443;28;20060;-61
2023/01/26 01:09:59;;;;;;;48.28;24.17;;;;;;;2.51;61.70;101066.38;5039063;28;20409;-61
2023/01/26 01:12:26;;;;;;;48.78;24.42;;;;;;;2.46;62.85;101066.28;5034638;28;20061;-61
2023/01/26 01:14:54;;;;;;;50.97;24.85;;;;;;;2.43;63.28;101070.34;5047713;28;20474;-61
2023/01/26 01:17:21;;;;;;;50.90;25.38;;;;;;;2.40;62.77;101068.94;5054114;28;20053;-61
2023/01/26 01:19:49;;;;;;;48.17;24.13;;;;;;;2.48;62.92;101070.47;5053463;28;20127;-61
2023/01/26 01:22:17;;;;;;;49.28;24.13;;;;;;;2.48;62.20;101066.84;5054168;28;20052;-61
2023/01/26 01:24:44;;;;;;;46.30;23.83;;;;;;;2.49;62.63;101060.28;5042578;28;20056;-62
2023/01/26 01:27:11;;;;;;;43.70;22.90;;;;;;;2.52;63.39;101057.91;5053679;28;20504;-61
2023/01/26 01:29:39;;;;;;;53.33;25.13;;;;;;;2.55;62.45;101064.81;5053295;28;20045;-61
2023/01/26 01:32:06;;;;;;;47.17;24.00;;;;;;;2.57;62.15;101068.16;5054285;28;20064;-61
2023/01/26 01:34:33;;;;;;;53.97;25.80;;;;;;;2.32;62.53;101066.56;5052947;28;20532;-60
2023/01/26 01:37:02;;;;;;;50.72;25.17;;;;;;;2.26;62.97;101063.97;5051877;28;20049;-61
2023/01/26 01:39:29;;;;;;;48.38;24.58;;;;;;;2.36;62.92;101073.25;5053762;28;20489;-61
2023/01/26 01:41:57;;;;;;;47.53;23.65;;;;;;;2.29;63.15;101069.81;5053203;28;20072;-61
2023/01/26 01:44:26;;;;;;;48.70;24.05;;;;;;;2.42;63.45;101066.78;5052709;28;20401;-61
2023/01/26 01:46:57;;;;;;;44.07;22.93;;;;;;;2.53;62.82;101064.22;5054192;28;20473;-61
2023/01/26 01:49:28;;;;;;;46.42;23.10;;;;;;;2.47;64.22;101051.47;5053846;28;20442;-61
2023/01/26 01:51:59;;;;;;;48.03;23.13;;;;;;;2.40;63.74;101051.63;5054035;28;20105;-61
2023/01/26 01:54:32;;;;;;;49.70;23.58;;;;;;;2.33;63.99;101051.75;5052758;28;20049;-61
2023/01/26 01:57:05;;;;;;;43.72;23.67;;;;;;;2.48;64.03;101053.13;5053775;28;20216;-61
2023/01/26 01:59:33;;;;;;;51.72;24.55;;;;;;;2.39;63.76;101045.28;5048426;28;20421;-61
2023/01/26 02:02:00;;;;;;;45.00;23.08;;;;;;;2.54;63.88;101043.88;5033969;28;20460;-60
2023/01/26 02:04:28;;;;;;;43.05;22.00;;;;;;;2.58;63.89;101034.06;5040740;28;20482;-61
2023/01/26 02:06:58;;;;;;;48.13;22.45;;;;;;;2.48;63.80;101031.13;5051387;28;20382;-61
2023/01/26 02:12:21;;;;;;;46.25;21.75;;;;;;;2.52;65.56;101021.28;5036158;28;20044;-60
2023/01/26 02:14:50;;;;;;;48.55;22.35;;;;;;;2.58;64.35;101023.06;5051156;28;20067;-62
2023/01/26 02:17:17;;;;;;;46.53;22.63;;;;;;;2.60;65.20;101018.16;5053396;28;20504;-60
2023/01/26 02:19:52;;;;;;;46.78;21.00;;;;;;;2.67;65.43;101020.72;5052928;28;20056;-61
2023/01/26 02:22:33;;;;;;;44.50;19.77;;;;;;;2.60;65.72;101018.16;5053008;28;20053;-60
2023/01/26 02:25:07;;;;;;;57.92;24.33;;;;;;;2.49;65.36;101014.38;5044360;28;20054;-61
2023/01/26 02:27:36;;;;;;;44.25;21.17;;;;;;;2.67;65.08;101020.72;5032943;28;20054;-61
2023/01/26 02:30:06;;;;;;;42.55;20.83;;;;;;;2.48;64.89;101020.13;5039405;28;20064;-61
2023/01/26 02:32:33;;;;;;;;;;;;;;;2.57;66.11;101015.91;5053072;28;20045;-61
2023/01/26 02:35:00;;;;;;;48.08;21.42;;;;;;;2.65;65.82;101001.75;5053190;28;19921;-61
2023/01/26 02:37:27;;;;;;;41.17;20.63;;;;;;;2.64;64.76;101002.81;5053296;28;20056;-62
2023/01/26 02:39:59;;;;;;;43.55;21.42;;;;;;;2.41;64.75;100999.09;5052132;28;20056;-61
2023/01/26 02:42:37;;;;;;;46.92;21.65;;;;;;;2.47;66.25;101004.72;5052745;28;20061;-61
2023/01/26 02:45:08;;;;;;;40.50;19.55;;;;;;;2.60;65.38;101007.13;5050911;28;20053;-62
2023/01/26 02:47:35;;;;;;;47.83;20.98;;;;;;;2.69;64.86;101000.16;5052918;28;20056;-61
2023/01/26 02:50:01;;;;;;;38.83;18.75;;;;;;;2.76;65.19;101005.50;5051179;28;20045;-61
2023/01/26 02:52:30;;;;;;;41.58;19.98;;;;;;;2.78;65.67;101003.34;5052353;28;20049;-60
2023/01/26 02:57:43;;;;;;;37.80;19.05;;;;;;;2.84;65.83;101000.41;5058652;28;20056;-61
2023/01/26 03:00:14;;;;;;;42.78;18.20;;;;;;;2.96;65.00;101014.09;5051144;28;20045;-61
2023/01/26 03:02:42;;;;;;;38.85;18.45;;;;;;;3.00;65.99;101007.00;5052394;28;20060;-60
2023/01/26 03:05:09;;;;;;;36.40;16.90;;;;;;;3.06;65.78;100999.66;5052579;28;20064;-60
2023/01/26 03:07:37;;;;;;;41.85;19.23;;;;;;;3.09;65.33;101001.06;5050974;28;20049;-61
2023/01/26 03:10:05;;;;;;;42.20;18.98;;;;;;;3.08;66.18;100991.97;5052049;28;20052;-61
2023/01/26 03:12:32;;;;;;;37.70;17.63;;;;;;;3.10;65.51;100992.56;5052157;28;20056;-62
2023/01/26 03:17:46;;;;;;;34.67;17.60;;;;;;;3.22;64.63;100987.78;5038551;28;20056;-61
2023/01/26 03:28:21;;;;;;;45.83;19.85;;;;;;;3.21;65.06;100985.28;5024646;28;20061;-60
2023/01/26 03:30:49;;;;;;;40.28;19.38;;;;;;;3.28;65.64;100979.63;5049895;28;20068;-61
2023/01/26 03:33:18;;;;;;;37.35;17.83;;;;;;;3.26;65.04;100988.13;5052467;28;20359;-61
2023/01/26 03:35:46;;;;;;;43.25;20.77;;;;;;;3.31;65.19;100990.13;5048520;28;20053;-61
2023/01/26 03:38:14;;;;;;;39.30;19.23;;;;;;;3.33;65.84;100990.69;5052038;28;20405;-63
2023/01/26 03:57:10;;;;;;;42.60;19.40;;;;;;;3.33;66.42;100986.03;5057136;28;20481;-60
2023/01/26 03:59:41;;;;;;;45.47;20.15;;;;;;;3.38;66.00;100975.09;5051852;28;20041;-60
2023/01/26 04:10:26;;;;;;;43.70;19.80;;;;;;;3.44;66.00;100979.59;5036063;28;20060;-60
2023/01/26 04:21:28;;;;;;;40.65;19.95;;;;;;;3.52;65.59;100980.22;5054251;28;20049;-60
2023/01/26 04:23:57;;;;;;;42.28;18.52;;;;;;;3.55;65.80;100975.03;5050083;28;20065;-61
2023/01/26 04:26:24;;;;;;;41.28;19.23;;;;;;;3.57;66.31;100988.53;5051650;28;20064;-59
2023/01/26 04:28:52;;;;;;;41.13;19.42;;;;;;;3.54;66.16;100987.13;5051805;28;20512;-61
2023/01/26 04:31:19;;;;;;;44.35;20.92;;;;;;;3.56;66.00;100987.72;5045568;28;20053;-60
2023/01/26 04:33:47;;;;;;;44.97;21.92;;;;;;;3.61;65.44;100985.03;5032287;28;20057;-60
2023/01/26 04:36:16;;;;;;;45.50;20.40;;;;;;;3.65;65.54;100983.44;5031989;28;20064;-61
2023/01/26 04:38:43;;;;;;;42.42;21.05;;;;;;;3.66;64.59;100987.03;5032210;28;20500;-61
2023/01/26 04:41:10;;;;;;;48.13;22.45;;;;;;;3.66;65.64;100987.84;5042313;28;20068;-61
2023/01/26 04:43:37;;;;;;;45.47;21.63;;;;;;;3.68;66.00;100984.03;5048606;28;20057;-61
2023/01/26 04:46:07;;;;;;;50.80;21.77;;;;;;;3.62;65.48;100977.59;5050746;28;20049;-61
2023/01/26 04:48:35;;;;;;;39.70;19.10;;;;;;;3.66;66.64;100981.50;5051130;28;20060;-61
2023/01/26 04:51:04;;;;;;;47.28;22.85;;;;;;;3.72;65.43;100986.00;5054956;28;20504;-61
2023/01/26 04:53:33;;;;;;;46.63;22.05;;;;;;;3.74;65.10;100978.31;5055334;28;20057;-61
2023/01/26 04:56:01;;;;;;;40.95;20.02;;;;;;;3.71;65.95;100975.22;5055300;28;20052;-61
2023/01/26 04:58:28;;;;;;;43.03;21.42;;;;;;;3.69;64.87;100974.66;5053664;28;20057;-61
2023/01/26 05:00:57;;;;;;;46.47;22.63;;;;;;;3.62;64.91;100981.19;5053984;28;20049;-60
2023/01/26 05:03:26;;;;;;;48.08;22.58;;;;;;;3.65;65.38;100977.94;5052915;28;20045;-61
2023/01/26 05:05:55;;;;;;;50.13;23.90;;;;;;;3.69;66.34;100974.66;5042648;28;20052;-61
2023/01/26 05:08:22;;;;;;;50.28;24.73;;;;;;;3.74;65.34;100969.19;5052955;28;20053;-61
2023/01/26 05:10:51;;;;;;;51.83;25.42;;;;;;;3.73;65.35;100976.63;5053966;28;20049;-60
2023/01/26 05:13:19;;;;;;;49.15;23.08;;;;;;;3.66;66.44;100967.75;5054326;28;20044;-61
2023/01/26 05:15:46;;;;;;;47.97;24.30;;;;;;;3.70;65.72;100966.13;5051917;28;20775;-62
2023/01/26 05:18:14;;;;;;;49.33;24.60;;;;;;;3.67;65.10;100966.63;5052083;28;20060;-62
2023/01/26 05:20:41;;;;;;;52.35;23.80;;;;;;;3.69;65.41;100974.66;5035559;28;20482;-61
2023/01/26 05:23:08;;;;;;;44.05;21.73;;;;;;;3.68;65.80;100973.81;5035009;28;20497;-61
2023/01/26 05:25:36;;;;;;;54.55;25.52;;;;;;;3.68;65.79;100964.75;5034378;28;20049;-61
2023/01/26 05:28:05;;;;;;;52.20;24.52;;;;;;;3.68;65.73;100971.06;5049309;28;20053;-61
2023/01/26 05:30:32;;;;;;;56.63;25.80;;;;;;;3.65;65.21;100968.81;5052662;28;20398;-61
2023/01/26 05:33:03;;;;;;;54.22;25.63;;;;;;;3.68;65.81;100978.50;5053691;28;20840;-61
2023/01/26 05:35:31;;;;;;;57.85;25.92;;;;;;;3.62;66.02;100972.91;5054013;28;20061;-62
2023/01/26 05:37:58;;;;;;;52.22;25.05;;;;;;;3.62;66.17;100980.34;5053777;28;20056;-61
2023/01/26 05:40:26;;;;;;;53.53;25.15;;;;;;;3.59;67.12;100975.34;5052955;28;20060;-61
2023/01/26 05:42:53;;;;;;;46.92;22.33;;;;;;;3.62;66.02;100981.19;5050983;28;20060;-61
2023/01/26 05:45:22;;;;;;;57.78;26.55;;;;;;;3.60;66.81;100983.38;5052902;28;20429;-61
2023/01/26 05:47:49;;;;;;;36.13;17.93;;;;;;;3.63;66.24;100988.38;5053944;28;20053;-62
2023/01/26 05:50:17;;;;;;;58.15;25.02;;;;;;;3.60;66.64;100986.13;5053431;28;20049;-62
2023/01/26 05:52:45;;;;;;;56.00;24.70;;;;;;;3.70;66.20;100981.84;5035913;28;20409;-61
2023/01/26 05:55:13;;;;;;;61.15;25.85;;;;;;;3.59;66.62;100987.22;5033990;28;20060;-61
2023/01/26 05:57:40;;;;;;;54.28;24.88;;;;;;;3.62;67.24;100986.69;5034059;28;20061;-61
2023/01/26 06:00:09;;;;;;;50.35;24.42;;;;;;;3.64;66.54;100980.94;5034420;28;20168;-62
2023/01/26 06:02:38;;;;;;;49.97;24.53;;;;;;;3.64;67.58;100978.19;5044629;28;20064;-60
2023/01/26 06:05:06;;;;;;;54.45;24.85;;;;;;;3.62;66.53;100986.69;5052307;28;20052;-61
2023/01/26 06:07:34;;;;;;;47.35;22.95;;;;;;;3.62;67.17;100992.22;5048667;28;20052;-60
2023/01/26 06:10:02;;;;;;;49.22;23.10;;;;;;;3.63;66.62;100993.88;5051303;28;20056;-61
2023/01/26 06:12:34;;;;;;;52.65;25.20;;;;;;;3.60;66.42;100988.03;5047299;28;20045;-61
2023/01/26 06:15:01;;;;;;;51.70;24.02;;;;;;;3.62;66.35;100986.69;5051963;28;20053;-60
2023/01/26 06:17:29;;;;;;;49.67;24.15;;;;;;;3.60;66.04;100982.53;5039403;28;20052;-61
2023/01/26 06:19:57;;;;;;;59.58;27.75;;;;;;;3.57;67.14;100994.91;5052077;28;20052;-61
2023/01/26 06:22:25;;;;;;;48.92;23.40;;;;;;;3.54;66.96;100991.81;5052671;28;20057;-61
2023/01/26 06:24:52;;;;;;;52.78;24.85;;;;;;;3.55;66.50;100994.31;5052160;28;20053;-61
2023/01/26 06:27:19;;;;;;;54.33;25.73;;;;;;;3.59;66.57;100992.72;5053157;28;20048;-61
2023/01/26 06:29:46;;;;;;;54.92;25.15;;;;;;;3.59;66.46;100986.38;5040080;28;20057;-61
2023/01/26 06:32:14;;;;;;;52.35;24.50;;;;;;;3.58;67.17;100996.56;5047484;28;20057;-61
2023/01/26 06:34:41;;;;;;;54.95;26.33;;;;;;;3.60;67.54;100991.63;5052954;28;20053;-61
2023/01/26 06:37:12;;;;;;;64.18;28.83;;;;;;;3.65;67.38;100990.84;5053394;28;20060;-61
2023/01/26 06:39:40;;;;;;;63.20;28.77;;;;;;;3.64;67.19;100990.03;5047621;28;20044;-59
2023/01/26 06:42:08;;;;;;;55.47;25.17;;;;;;;3.64;67.41;100998.28;5051560;28;20065;-59
2023/01/26 06:44:35;;;;;;;57.92;26.73;;;;;;;3.62;66.64;100996.88;5051288;28;20041;-59
2023/01/26 06:47:03;;;;;;;59.30;28.10;;;;;;;3.65;67.76;100999.97;5047073;28;20053;-59
2023/01/26 06:49:30;;;;;;;51.53;25.08;;;;;;;3.63;68.05;101004.91;5050549;28;20056;-60
2023/01/26 06:52:02;;;;;;;54.63;26.85;;;;;;;3.69;67.89;101002.19;5049033;28;20056;-59
2023/01/26 06:54:31;;;;;;;50.63;24.95;;;;;;;3.71;66.31;101000.84;5044140;28;20052;-59
2023/01/26 06:56:58;;;;;;;51.17;25.75;;;;;;;3.60;67.56;101010.91;5050228;28;20052;-60
2023/01/26 06:59:26;;;;;;;47.78;23.60;;;;;;;3.63;67.61;101004.91;5043584;28;20410;-60
2023/01/26 07:01:53;;;;;;;56.92;24.65;;;;;;;3.65;66.85;101007.38;5047601;28;20053;-59
2023/01/26 07:04:20;;;;;;;52.65;26.08;;;;;;;3.63;66.72;101006.81;5050253;28;20063;-60
2023/01/26 07:06:47;;;;;;;47.55;22.25;;;;;;;3.60;67.47;101002.66;5050262;28;20049;-59
2023/01/26 07:09:15;;;;;;;49.75;24.52;;;;;;;3.60;67.35;101005.41;5051199;28;20493;-60
2023/01/26 07:11:44;;;;;;;51.67;25.13;;;;;;;3.56;67.06;101003.41;5044358;28;20045;-60
2023/01/26 07:14:11;;;;;;;51.78;24.58;;;;;;;3.55;67.64;100999.84;5050590;28;20421;-59
2023/01/26 07:16:39;;;;;;;47.67;22.02;;;;;;;3.63;67.18;100993.03;5048373;28;20049;-59
2023/01/26 07:19:06;;;;;;;49.90;23.92;;;;;;;3.69;66.81;100994.75;5051274;28;20045;-59
2023/01/26 07:21:34;;;;;;;46.13;22.38;;;;;;;3.63;67.95;100991.13;5049042;28;20045;-60
2023/01/26 07:24:01;;;;;;;45.95;22.83;;;;;;;3.62;67.03;100983.94;5047072;28;20049;-59
2023/01/26 07:26:28;;;;;;;49.10;23.67;;;;;;;3.68;67.88;100987.59;5050007;28;20056;-59
2023/01/26 07:28:57;;;;;;;48.33;23.63;;;;;;;3.55;66.44;100991.56;5036139;28;20053;-60
2023/01/26 07:31:24;;;;;;;47.67;22.45;;;;;;;3.59;67.66;100989.97;5043026;28;20445;-59
2023/01/26 07:33:51;;;;;;;44.67;21.13;;;;;;;3.69;66.50;101000.28;5051860;28;20060;-59
2023/01/26 07:36:19;;;;;;;49.83;22.23;;;;;;;3.30;66.39;100993.94;5052062;28;20056;-59
2023/01/26 07:38:46;;;;;;;42.83;21.90;;;;;;;3.37;66.72;100989.09;5051512;28;20055;-59
2023/01/26 07:41:13;;;;;;;42.00;20.67;;;;;;;3.43;66.76;100982.59;5052149;28;20406;-60
2023/01/26 07:43:41;;;;;;;39.50;20.90;;;;;;;3.34;67.00;100978.59;5051488;28;20394;-60
2023/01/26 07:46:11;;;;;;;44.40;21.88;;;;;;;3.42;67.37;100994.66;5050567;28;20085;-60
2023/01/26 07:48:39;;;;;;;43.35;20.77;;;;;;;3.39;66.44;100997.94;5051901;28;20056;-60
2023/01/26 07:51:08;;;;;;;44.30;22.65;;;;;;;3.52;66.88;100996.75;5052193;28;20059;-60
2023/01/26 07:53:38;;;;;;;47.33;22.02;;;;;;;3.55;65.82;101004.47;5051462;28;20373;-60
2023/01/26 07:56:07;;;;;;;40.08;20.50;;;;;;;3.61;66.56;101003.47;5052132;28;20068;-60
2023/01/26 07:58:35;;;;;;;46.00;23.73;;;;;;;3.66;66.43;100996.13;5051872;28;20053;-59
2023/01/26 08:01:12;;;;;;;42.35;22.27;;;;;;;3.75;65.69;101006.69;5050486;28;20056;-59
2023/01/26 08:03:40;;;;;;;49.08;25.27;;;;;;;3.82;65.98;101004.56;5050742;28;20061;-60
2023/01/26 08:06:08;;;;;;;43.80;22.10;;;;;;;3.84;66.53;101010.66;5051271;28;20171;-59
2023/01/26 08:08:36;;;;;;;42.28;21.20;;;;;;;3.88;65.24;101006.31;5052333;28;20049;-60
2023/01/26 08:11:03;;;;;;;40.65;20.98;;;;;;;3.89;65.53;101002.47;5050558;28;20056;-59
2023/01/26 08:13:31;;;;;;;36.90;19.70;;;;;;;3.99;65.75;101005.34;5051916;28;20053;-59
2023/01/26 08:16:03;;;;;;;41.90;21.17;;;;;;;4.05;65.71;101007.09;5051129;28;20060;-59
2023/01/26 08:18:31;;;;;;;46.47;22.83;;;;;;;4.11;65.19;101005.19;5050529;28;20048;-59
2023/01/26 08:20:59;;;;;;;40.22;21.30;;;;;;;4.11;65.04;101009.88;5050614;28;20417;-59
2023/01/26 08:23:27;;;;;;;44.80;22.70;;;;;;;4.13;65.44;101007.69;5051891;28;20053;-59
2023/01/26 08:25:54;;;;;;;46.00;22.85;;;;;;;4.22;65.24;101017.16;5055521;28;20064;-60
2023/01/26 08:28:21;;;;;;;48.92;24.17;;;;;;;4.25;64.94;101027.69;5055731;28;20052;-59
2023/01/26 08:30:48;;;;;;;48.10;23.90;;;;;;;4.23;65.60;101013.34;5054658;28;20052;-60
2023/01/26 08:33:16;;;;;;;48.97;25.70;;;;;;;4.24;65.75;101009.47;5055065;28;20397;-59
2023/01/26 08:35:44;;;;;;;48.60;25.23;;;;;;;4.31;65.60;101012.88;5055060;28;20497;-60
2023/01/26 08:38:12;;;;;;;45.05;23.65;;;;;;;4.32;65.37;101011.78;5055439;28;20068;-60
2023/01/26 08:40:39;;;;;;;52.30;24.58;;;;;;;4.30;65.41;101024.16;5055295;28;20059;-60
2023/01/26 08:43:06;;;;;;;42.72;22.98;;;;;;;4.33;65.20;101020.91;5036031;28;20061;-60
2023/01/26 08:45:33;;;;;;;46.20;23.33;;;;;;;4.33;64.89;101027.25;5035342;28;20060;-59
2023/01/26 08:48:01;;;;;;;48.10;24.85;;;;;;;4.34;64.96;101031.66;5050319;28;20057;-59
2023/01/26 08:50:28;;;;;;;56.20;28.05;;;;;;;4.36;64.79;101034.16;5055215;28;20053;-60
2023/01/26 08:52:57;;;;;;;45.13;22.58;;;;;;;4.40;65.17;101035.31;5054052;28;20524;-60
2023/01/26 08:55:24;;;;;;;44.97;23.73;;;;;;;4.37;64.95;101036.66;5055367;28;20061;-59
2023/01/26 08:57:54;;;;;;;45.13;23.85;;;;;;;4.40;65.26;101032.53;5055132;28;20053;-59
2023/01/26 09:00:23;;;;;;;47.08;24.92;;;;;;;4.40;64.50;101038.06;5054860;28;20060;-60
2023/01/26 09:02:51;;;;;;;43.40;22.95;;;;;;;4.42;65.71;101036.69;5052629;28;20048;-59
2023/01/26 09:05:18;;;;;;;51.30;27.92;;;;;;;4.44;65.79;101034.53;5045587;28;20053;-60
2023/01/26 09:07:46;;;;;;;52.92;24.10;;;;;;;4.51;64.95;101037.06;5052421;28;20049;-60
2023/01/26 09:10:14;;;;;;;45.40;23.50;;;;;;;4.51;65.03;101028.78;5054928;28;20051;-60
2023/01/26 09:12:42;;;;;;;42.22;21.98;;;;;;;4.56;65.48;101030.78;5053369;28;20041;-60
2023/01/26 09:15:10;;;;;;;50.00;25.15;;;;;;;4.60;65.58;101031.91;5054608;28;20049;-60
2023/01/26 09:17:37;;;;;;;45.25;23.48;;;;;;;4.62;64.82;101038.84;5054031;28;20057;-59
2023/01/26 09:20:06;;;;;;;49.08;24.48;;;;;;;4.63;65.57;101043.25;5054441;28;20410;-60
2023/01/26 09:22:33;;;;;;;55.50;27.45;;;;;;;4.65;64.92;101038.31;5053618;28;20053;-59
2023/01/26 09:25:00;;;;;;;47.90;24.73;;;;;;;4.64;65.12;101042.19;5054204;28;20064;-59
2023/01/26 09:27:29;;;;;;;53.92;27.25;;;;;;;4.59;64.93;101039.38;5054548;28;20409;-60
2023/01/26 09:29:56;;;;;;;50.08;24.95;;;;;;;4.67;64.67;101038.88;5048412;28;20470;-59
2023/01/26 09:32:23;;;;;;;57.53;27.77;;;;;;;4.69;65.26;101044.16;5040480;28;20402;-60
2023/01/26 09:34:51;;;;;;;47.25;23.15;;;;;;;4.74;64.69;101046.13;5053422;28;20057;-60
2023/01/26 09:37:18;;;;;;;45.42;23.38;;;;;;;4.85;64.45;101042.34;5054265;28;20056;-59
2023/01/26 09:39:46;;;;;;;43.53;23.35;;;;;;;4.96;63.89;101048.81;5052849;28;20048;-60
2023/01/26 09:42:43;;;;;;;56.13;28.42;;;;;;;5.01;63.68;101044.16;5053817;28;20056;-60
2023/01/26 09:45:26;;;;;;;46.80;24.13;;;;;;;4.92;63.17;101047.69;5052889;28;20049;-60
2023/01/26 09:48:07;;;;;;;50.45;25.95;;;;;;;4.91;63.10;101044.06;5052483;28;20064;-60
2023/01/26 09:50:41;;;;;;;48.30;25.08;;;;;;;4.85;63.59;101042.34;5054296;28;20079;-59
2023/01/26 09:53:14;;;;;;;48.33;24.58;;;;;;;4.74;64.11;101046.94;5054275;28;20060;-60
2023/01/26 09:55:45;;;;;;;48.40;24.08;;;;;;;4.71;64.20;101047.50;5054237;28;20053;-60
2023/01/26 09:58:18;;;;;;;45.30;24.38;;;;;;;4.79;63.45;101037.91;5051667;28;20060;-60
2023/01/26 10:00:48;;;;;;;46.95;24.13;;;;;;;4.76;63.18;101035.66;5052827;28;20049;-60
2023/01/26 10:03:28;;;;;;;49.78;25.85;;;;;;;4.77;62.89;101040.94;5052986;28;20504;-60
2023/01/26 10:06:04;;;;;;;46.15;23.60;;;;;;;4.76;63.29;101039.25;5053852;28;20048;-60
2023/01/26 10:08:32;;;;;;;45.13;25.20;;;;;;;4.62;63.26;101043.53;5053048;28;20053;-59
2023/01/26 10:11:04;;;;;;;46.47;26.40;;;;;;;4.50;63.48;101032.66;5053354;28;20052;-60
2023/01/26 10:13:34;;;;;;;55.42;28.95;;;;;;;4.41;64.76;101029.53;5053610;28;20076;-60
2023/01/26 10:16:06;;;;;;;42.60;25.02;;;;;;;4.53;64.96;101020.25;5053540;28;20064;-60
2023/01/26 10:18:37;;;;;;;51.45;24.92;;;;;;;4.47;64.50;101022.97;5052161;28;20498;-60
2023/01/26 10:21:07;;;;;;;46.38;23.67;;;;;;;4.58;65.06;101021.16;5053061;28;20063;-60
2023/01/26 10:23:35;;;;;;;46.92;22.73;;;;;;;4.67;64.50;101019.56;5053512;28;20509;-59
2023/01/26 10:26:12;;;;;;;50.85;26.10;;;;;;;4.71;65.24;101030.09;5053436;28;20052;-60
2023/01/26 10:28:43;;;;;;;44.42;23.27;;;;;;;4.76;65.04;101027.38;5053667;28;20473;-60
2023/01/26 10:31:15;;;;;;;45.17;24.30;;;;;;;4.83;64.67;101023.31;5053551;28;20409;-60
2023/01/26 10:33:50;;;;;;;42.67;22.70;;;;;;;4.89;65.25;101026.94;5051408;28;20406;-60
2023/01/26 10:36:17;;;;;;;54.22;29.48;;;;;;;4.91;65.27;101021.16;5053522;28;20057;-59
2023/01/26 10:38:45;;;;;;;42.38;24.15;;;;;;;4.81;65.57;101014.47;5053476;28;20049;-59
2023/01/26 10:41:25;;;;;;;43.35;21.83;;;;;;;4.89;65.55;101021.41;5053158;28;20493;-58
2023/01/26 10:43:56;;;;;;;41.25;21.30;;;;;;;4.97;65.33;101006.31;5051519;28;20064;-59
2023/01/26 10:46:29;;;;;;;40.28;19.60;;;;;;;4.90;65.06;101009.28;5052510;28;20056;-60
2023/01/26 10:48:59;;;;;;;41.38;22.00;;;;;;;5.04;64.75;101006.91;5051312;28;20053;-60
2023/01/26 10:51:29;;;;;;;;;;;;;;;4.97;65.72;101006.31;5052406;28;20448;-59
2023/01/26 10:54:15;;;;;;;50.50;24.23;;;;;;;4.95;64.82;101000.22;5032628;28;19928;-60
2023/01/26 10:56:46;;;;;;;47.92;23.27;;;;;;;4.99;65.04;101004.13;5022255;28;20418;-59
2023/01/26 10:59:23;;;;;;;45.92;22.05;;;;;;;5.03;64.89;101005.25;5039618;28;20402;-59
2023/01/26 11:01:55;;;;;;;41.00;20.42;;;;;;;5.14;64.98;100995.94;5051307;28;20486;-60
2023/01/26 11:04:23;;;;;;;39.17;21.58;;;;;;;5.18;64.61;100991.56;5051025;28;20041;-60
2023/01/26 11:06:50;;;;;;;41.20;21.30;;;;;;;5.19;64.50;100987.72;5051034;28;20401;-60
2023/01/26 11:09:20;;;;;;;45.30;24.17;;;;;;;5.13;64.69;100991.53;5052560;28;20056;-60
2023/01/26 11:12:02;;;;;;;42.72;21.40;;;;;;;5.20;64.96;100989.34;5051534;28;20053;-60
2023/01/26 11:14:31;;;;;;;39.20;22.23;;;;;;;5.27;64.80;100989.97;5032791;28;20418;-60
2023/01/26 11:17:01;;;;;;;;;;;;;;;5.19;65.22;100989.66;5044768;28;20072;-60
2023/01/26 11:19:50;;;;;;;38.78;19.80;;;;;;;5.28;65.20;100991.63;5049708;28;19920;-60
2023/01/26 11:22:20;;;;;;;42.55;21.55;;;;;;;5.32;64.86;100988.34;5043913;28;20053;-60
2023/01/26 11:24:59;;;;;;;40.63;20.23;;;;;;;5.38;64.70;100990.03;5032666;28;20060;-60
2023/01/26 11:27:39;;;;;;;37.35;20.48;;;;;;;5.38;65.12;100985.34;5032808;28;20053;-59
2023/01/26 11:30:33;;;;;;;46.30;22.90;;;;;;;5.46;64.59;100984.00;5040775;28;20045;-59
2023/01/26 11:33:07;;;;;;;41.22;22.20;;;;;;;5.47;64.80;100985.66;5047787;28;20047;-60
2023/01/26 11:35:46;;;;;;;43.67;21.77;;;;;;;5.47;64.69;100975.44;5049451;28;20045;-59
2023/01/26 11:38:27;;;;;;;41.22;21.67;;;;;;;5.43;64.41;100974.31;5049062;28;20075;-59
2023/01/26 11:41:04;;;;;;;44.25;22.42;;;;;;;5.48;64.65;100973.50;5049621;28;20060;-59
2023/01/26 11:43:58;;;;;;;43.38;21.30;;;;;;;5.53;64.48;100970.78;5050703;28;20493;-59
2023/01/26 11:46:41;;;;;;;43.75;21.00;;;;;;;5.59;64.27;100979.94;5049944;28;20049;-60
2023/01/26 11:49:23;;;;;;;32.17;17.55;;;;;;;5.58;64.39;100976.31;5051981;28;20076;-60
2023/01/26 11:52:03;;;;;;;33.65;18.55;;;;;;;5.60;64.27;100968.59;5049386;28;20390;-60
2023/01/26 11:54:38;;;;;;;;;;;;;;;5.62;64.43;100968.34;5039693;28;20056;-60
2023/01/26 11:57:20;;;;;;;32.35;18.15;;;;;;;5.62;64.20;100965.56;5051830;28;19920;-60
2023/01/26 11:59:53;;;;;;;31.15;16.55;;;;;;;5.62;64.52;100969.16;5054950;28;20061;-60
2023/01/26 12:02:30;;;;;;;32.55;16.63;;;;;;;5.66;64.20;100963.94;5054379;28;20072;-60
2023/01/26 12:05:02;;;;;;;29.02;16.73;;;;;;;5.75;63.69;100961.47;5054833;28;20052;-61
2023/01/26 12:07:32;;;;;;;30.98;16.65;;;;;;;5.66;64.15;100958.41;5055304;28;20397;-60
2023/01/26 12:10:02;;;;;;;31.77;18.05;;;;;;;5.68;64.00;100965.31;5055645;28;20389;-60
2023/01/26 12:12:36;;;;;;;36.53;19.70;;;;;;;5.66;64.11;100950.94;5055931;28;20055;-60
2023/01/26 12:15:11;;;;;;;32.58;18.17;;;;;;;5.69;63.85;100944.03;5053991;28;21219;-60
2023/01/26 12:17:48;;;;;;;31.88;17.88;;;;;;;5.69;63.81;100946.78;5055652;28;20401;-60
2023/01/26 12:20:27;;;;;;;30.38;16.55;;;;;;;5.68;63.63;100950.66;5055409;28;20057;-60